createdAt,value
2022-08-07T00:02:39.630Z,7.80
2022-08-07T00:05:05.806Z,7.60
2022-08-07T00:07:40.372Z,8.20
2022-08-07T00:10:27.060Z,8.50
2022-08-07T00:13:01.799Z,8.30
2022-08-07T00:15:38.383Z,8.80
2022-08-07T00:18:18.951Z,8.30
2022-08-07T00:20:52.191Z,8.90
2022-08-07T00:23:21.075Z,7.90
2022-08-07T00:25:59.043Z,8.20
2022-08-07T00:28:34.437Z,8.50
2022-08-07T00:31:12.706Z,8.30
2022-08-07T00:33:47.436Z,7.90
2022-08-07T00:36:16.870Z,7.70
2022-08-07T00:38:45.548Z,7.30
2022-08-07T00:41:14.618Z,8.10
2022-08-07T00:44:01.374Z,7.80
2022-08-07T00:46:33.180Z,7.80
2022-08-07T00:49:03.481Z,7.60
2022-08-07T00:51:56.576Z,7.30
2022-08-07T00:54:20.878Z,7.40
2022-08-07T00:56:52.269Z,7.60
2022-08-07T00:59:35.079Z,7.90
2022-08-07T01:04:59.066Z,7.20
2022-08-07T01:07:29.332Z,7.80
2022-08-07T01:10:06.603Z,7.70
2022-08-07T01:12:53.424Z,7.50
2022-08-07T01:15:35.928Z,7.80
2022-08-07T01:18:17.129Z,8.20
2022-08-07T01:20:59.709Z,7.50
2022-08-07T01:23:39.390Z,7.90
2022-08-07T01:26:15.831Z,8.20
2022-08-07T01:28:51.068Z,8.60
2022-08-07T01:31:41.791Z,8.00
2022-08-07T01:34:14.554Z,8.20
2022-08-07T01:36:44.755Z,8.20
2022-08-07T01:39:39.640Z,8.00
2022-08-07T01:42:38.373Z,8.10
2022-08-07T01:45:17.933Z,8.60
2022-08-07T01:48:20.893Z,8.50
2022-08-07T01:50:43.262Z,8.50
2022-08-07T01:53:21.806Z,8.50
2022-08-07T01:56:09.754Z,8.30
2022-08-07T01:59:15.768Z,8.60
2022-08-07T02:02:02.836Z,8.70
2022-08-07T02:04:56.551Z,8.80
2022-08-07T02:07:49.944Z,8.90
2022-08-07T02:10:26.068Z,8.40
2022-08-07T02:12:59.631Z,8.60
2022-08-07T02:15:35.183Z,8.40
2022-08-07T02:18:05.002Z,8.40
2022-08-07T02:20:34.988Z,8.70
2022-08-07T02:23:07.879Z,8.80
2022-08-07T02:26:31.379Z,8.70
2022-08-07T02:28:33.440Z,8.90
2022-08-07T02:31:18.900Z,9.00
2022-08-07T02:34:04.022Z,8.50
2022-08-07T02:36:42.742Z,8.70
2022-08-07T02:39:43.181Z,9.00
2022-08-07T02:42:10.319Z,8.70
2022-08-07T02:44:48.863Z,9.40
2022-08-07T02:47:23.546Z,9.00
2022-08-07T02:49:59.949Z,9.40
2022-08-07T02:52:41.811Z,9.10
2022-08-07T02:55:28.561Z,9.00
2022-08-07T02:58:15.255Z,9.30
2022-08-07T03:00:48.402Z,9.70
2022-08-07T03:03:22.905Z,9.20
2022-08-07T03:05:56.441Z,9.20
2022-08-07T03:08:26.846Z,9.80
2022-08-07T03:10:59.862Z,9.20
2022-08-07T03:13:38.751Z,9.40
2022-08-07T03:16:18.730Z,9.30
2022-08-07T03:18:56.931Z,10.00
2022-08-07T03:21:26.959Z,8.70
2022-08-07T03:24:20.720Z,9.40
2022-08-07T03:26:58.624Z,9.40
2022-08-07T03:29:36.603Z,8.60
2022-08-07T03:32:13.323Z,8.50
2022-08-07T03:34:47.252Z,8.50
2022-08-07T03:37:37.505Z,9.20
2022-08-07T03:40:16.900Z,9.30
2022-08-07T03:42:46.443Z,8.70
2022-08-07T03:45:30.338Z,9.70
2022-08-07T03:48:09.987Z,9.40
2022-08-07T03:50:43.209Z,9.60
2022-08-07T03:54:00.653Z,9.90
2022-08-07T03:56:32.826Z,8.80
2022-08-07T03:59:10.075Z,9.20
2022-08-07T04:01:47.186Z,9.20
2022-08-07T04:04:18.681Z,9.80
2022-08-07T04:06:51.680Z,8.80
2022-08-07T04:09:23.110Z,9.40
2022-08-07T04:12:23.805Z,8.90
2022-08-07T04:14:46.204Z,9.00
2022-08-07T04:17:20.910Z,9.20
2022-08-07T04:20:11.461Z,9.50
2022-08-07T04:22:53.078Z,9.30
2022-08-07T04:25:24.638Z,8.80
2022-08-07T04:28:01.000Z,8.90
2022-08-07T04:30:39.569Z,9.10
2022-08-07T04:33:20.639Z,9.30
2022-08-07T04:35:54.127Z,8.50
2022-08-07T04:38:28.800Z,8.30
2022-08-07T04:40:58.097Z,8.80
2022-08-07T04:44:09.619Z,8.40
2022-08-07T04:46:51.318Z,7.90
2022-08-07T04:49:57.751Z,8.40
2022-08-07T04:52:52.041Z,8.20
2022-08-07T04:58:09.807Z,8.20
2022-08-07T05:02:02.390Z,8.30
2022-08-07T05:04:50.347Z,8.10
2022-08-07T05:07:48.537Z,8.00
2022-08-07T05:10:27.031Z,7.50
2022-08-07T05:14:52.819Z,7.60
2022-08-07T05:16:10.343Z,8.10
2022-08-07T05:18:45.678Z,7.80
2022-08-07T05:21:18.471Z,7.70
2022-08-07T05:24:12.381Z,8.10
2022-08-07T05:26:41.717Z,8.10
2022-08-07T05:29:18.299Z,8.20
2022-08-07T05:31:52.741Z,7.50
2022-08-07T05:34:26.386Z,7.90
2022-08-07T05:36:56.913Z,7.90
2022-08-07T05:40:05.547Z,7.90
2022-08-07T05:42:33.904Z,7.40
2022-08-07T05:45:14.279Z,7.70
2022-08-07T05:48:02.578Z,7.20
2022-08-07T05:50:42.978Z,7.30
2022-08-07T05:54:09.343Z,7.50
2022-08-07T05:56:05.883Z,6.90
2022-08-07T05:58:40.856Z,6.40
2022-08-07T06:01:20.429Z,6.70
2022-08-07T06:03:58.848Z,6.80
2022-08-07T06:06:34.499Z,6.30
2022-08-07T06:09:05.693Z,7.10
2022-08-07T06:11:39.327Z,6.70
2022-08-07T06:14:12.114Z,6.60
2022-08-07T06:16:56.442Z,5.80
2022-08-07T06:19:51.876Z,6.20
2022-08-07T06:22:24.152Z,5.70
2022-08-07T06:25:17.118Z,5.90
2022-08-07T06:28:01.265Z,5.40
2022-08-07T06:30:35.699Z,5.20
2022-08-07T06:33:16.154Z,6.20
2022-08-07T06:36:06.620Z,5.40
2022-08-07T06:38:35.332Z,5.00
2022-08-07T06:41:12.940Z,5.50
2022-08-07T06:44:01.307Z,5.50
2022-08-07T06:46:35.488Z,5.10
2022-08-07T06:49:05.592Z,5.20
2022-08-07T06:51:49.645Z,5.20
2022-08-07T06:55:32.411Z,5.30
2022-08-07T06:57:12.096Z,5.30
2022-08-07T07:00:13.245Z,5.00
2022-08-07T07:02:48.895Z,4.90
2022-08-07T07:06:02.681Z,5.70
2022-08-07T07:08:18.437Z,5.00
2022-08-07T07:10:56.849Z,5.20
2022-08-07T07:13:41.507Z,5.10
2022-08-07T07:16:30.496Z,5.20
2022-08-07T07:19:40.965Z,5.40
2022-08-07T07:22:04.786Z,5.90
2022-08-07T07:24:56.745Z,5.10
2022-08-07T07:27:35.665Z,5.40
2022-08-07T07:30:32.436Z,5.10
2022-08-07T07:33:03.554Z,5.70
2022-08-07T07:35:44.136Z,6.00
2022-08-07T07:38:27.892Z,5.50
2022-08-07T07:41:02.379Z,4.90
2022-08-07T07:43:47.971Z,5.30
2022-08-07T07:46:40.517Z,5.50
2022-08-07T07:50:34.370Z,5.80
2022-08-07T07:52:05.886Z,5.20
2022-08-07T07:54:37.384Z,4.90
2022-08-07T07:57:11.206Z,5.00
2022-08-07T07:59:52.639Z,4.60
2022-08-07T08:02:35.690Z,4.80
2022-08-07T08:05:14.244Z,5.10
2022-08-07T08:08:00.051Z,4.80
2022-08-07T08:10:35.671Z,5.20
2022-08-07T08:13:15.128Z,4.60
2022-08-07T08:15:57.878Z,5.00
2022-08-07T08:18:29.347Z,5.40
2022-08-07T08:21:01.806Z,5.00
2022-08-07T08:23:52.063Z,5.20
2022-08-07T08:26:40.678Z,5.40
2022-08-07T08:29:10.497Z,5.20
2022-08-07T08:32:16.930Z,4.70
2022-08-07T08:34:35.358Z,4.80
2022-08-07T08:37:10.004Z,5.00
2022-08-07T08:39:58.330Z,5.20
2022-08-07T08:42:43.808Z,4.60
2022-08-07T08:45:41.986Z,4.90
2022-08-07T08:48:50.919Z,4.60
2022-08-07T08:52:12.533Z,4.30
2022-08-07T08:54:32.878Z,4.50
2022-08-07T08:57:07.682Z,3.50
2022-08-07T09:00:00.154Z,4.30
2022-08-07T09:02:52.505Z,3.90
2022-08-07T09:08:34.336Z,4.30
2022-08-07T09:11:24.535Z,4.00
2022-08-07T09:14:40.536Z,3.70
2022-08-07T09:17:58.998Z,4.10
2022-08-07T09:20:42.166Z,3.80
2022-08-07T09:24:33.076Z,3.50
2022-08-07T09:26:56.975Z,4.30
2022-08-07T09:30:03.991Z,3.90
2022-08-07T09:32:49.776Z,4.10
2022-08-07T09:36:05.295Z,3.90
2022-08-07T09:38:53.787Z,4.10
2022-08-07T09:42:02.993Z,3.80
2022-08-07T09:47:24.646Z,3.80
2022-08-07T09:48:15.102Z,4.00
2022-08-07T09:52:09.214Z,3.90
2022-08-07T09:54:11.588Z,3.60
2022-08-07T09:57:22.170Z,4.70
2022-08-07T10:00:14.487Z,4.00
2022-08-07T10:04:04.833Z,3.90
2022-08-07T10:06:29.616Z,3.90
2022-08-07T10:09:16.536Z,3.80
2022-08-07T10:12:15.094Z,3.50
2022-08-07T10:14:54.141Z,3.70
2022-08-07T10:18:06.506Z,3.60
2022-08-07T10:20:59.425Z,3.30
2022-08-07T10:24:08.496Z,4.00
2022-08-07T10:26:52.972Z,3.80
2022-08-07T10:29:55.525Z,3.80
2022-08-07T10:32:59.588Z,3.70
2022-08-07T10:35:55.637Z,3.60
2022-08-07T10:38:48.953Z,3.60
2022-08-07T10:41:54.752Z,3.90
2022-08-07T10:44:54.664Z,3.40
2022-08-07T10:47:55.008Z,3.40
2022-08-07T10:50:34.952Z,4.10
2022-08-07T10:53:44.011Z,3.90
2022-08-07T10:56:30.982Z,4.00
2022-08-07T10:59:21.645Z,3.60
2022-08-07T11:02:05.409Z,3.40
2022-08-07T11:04:52.184Z,3.70
2022-08-07T11:07:58.879Z,3.50
2022-08-07T11:10:43.959Z,3.30
2022-08-07T11:14:44.524Z,3.20
2022-08-07T11:16:48.045Z,3.50
2022-08-07T11:19:44.146Z,3.50
2022-08-07T11:22:45.981Z,3.60
2022-08-07T11:25:26.100Z,3.30
2022-08-07T11:28:06.323Z,3.50
2022-08-07T11:30:55.793Z,3.60
2022-08-07T11:33:53.502Z,3.60
2022-08-07T11:37:04.550Z,3.70
2022-08-07T11:40:03.435Z,3.70
2022-08-07T11:42:51.898Z,3.50
2022-08-07T11:45:50.165Z,3.40
2022-08-07T11:49:04.350Z,3.70
2022-08-07T11:51:56.793Z,3.40
2022-08-07T11:54:35.139Z,3.40
2022-08-07T11:57:57.666Z,3.70
2022-08-07T12:00:27.644Z,3.40
2022-08-07T12:03:41.376Z,3.50
2022-08-07T12:06:37.268Z,3.30
2022-08-07T12:09:23.684Z,3.40
2022-08-07T12:12:10.554Z,3.30
2022-08-07T12:15:01.419Z,3.20
2022-08-07T12:17:39.608Z,3.10
2022-08-07T12:20:34.966Z,3.50
2022-08-07T12:24:06.403Z,3.30
2022-08-07T12:26:46.703Z,3.00
2022-08-07T12:29:37.627Z,3.60
2022-08-07T12:32:19.961Z,3.20
2022-08-07T12:34:56.157Z,3.30
2022-08-07T12:37:28.424Z,3.20
2022-08-07T12:40:44.052Z,3.20
2022-08-07T12:44:02.415Z,3.50
2022-08-07T12:46:15.800Z,3.20
2022-08-07T12:48:59.402Z,3.20
2022-08-07T12:52:20.500Z,3.20
2022-08-07T12:55:17.468Z,2.80
2022-08-07T12:58:00.226Z,3.10
2022-08-07T13:01:02.226Z,3.30
2022-08-07T13:03:54.954Z,2.90
2022-08-07T13:07:00.044Z,3.30
2022-08-07T13:10:18.938Z,2.90
2022-08-07T13:12:26.363Z,3.00
2022-08-07T13:15:29.383Z,3.10
2022-08-07T13:18:26.262Z,3.30
2022-08-07T13:21:35.057Z,3.20
2022-08-07T13:24:43.970Z,3.30
2022-08-07T13:27:33.317Z,3.70
2022-08-07T13:30:40.306Z,3.10
2022-08-07T13:34:30.826Z,3.20
2022-08-07T13:36:17.637Z,3.10
2022-08-07T13:39:12.718Z,3.40
2022-08-07T13:41:50.035Z,3.40
2022-08-07T13:47:09.444Z,3.40
2022-08-07T13:50:33.462Z,3.30
2022-08-07T13:52:39.518Z,3.40
2022-08-07T13:55:19.144Z,3.40
2022-08-07T13:58:33.927Z,3.90
2022-08-07T14:01:20.335Z,3.50
2022-08-07T14:04:06.828Z,4.20
2022-08-07T14:06:40.524Z,3.90
2022-08-07T14:10:02.723Z,3.90
2022-08-07T14:12:11.303Z,3.70
2022-08-07T14:14:48.273Z,4.00
2022-08-07T14:18:13.097Z,4.20
2022-08-07T14:20:40.204Z,3.90
2022-08-07T14:23:59.512Z,4.40
2022-08-07T14:26:30.364Z,4.50
2022-08-07T14:30:03.039Z,4.80
2022-08-07T14:31:57.707Z,4.40
2022-08-07T14:34:31.445Z,4.80
2022-08-07T14:37:03.651Z,5.00
2022-08-07T14:40:15.654Z,4.50
2022-08-07T14:42:32.449Z,4.60
2022-08-07T14:45:21.691Z,5.20
2022-08-07T14:47:58.877Z,4.70
2022-08-07T14:50:31.588Z,4.90
2022-08-07T14:56:03.357Z,4.40
2022-08-07T14:58:36.190Z,4.00
2022-08-07T15:01:22.355Z,4.40
2022-08-07T15:03:53.666Z,4.10
2022-08-07T15:06:28.413Z,4.60
2022-08-07T15:09:57.862Z,4.00
2022-08-07T15:12:09.895Z,4.30
2022-08-07T15:15:07.564Z,4.30
2022-08-07T15:17:54.614Z,4.60
2022-08-07T15:20:38.581Z,4.00
2022-08-07T15:26:28.791Z,4.40
2022-08-07T15:30:04.436Z,5.00
2022-08-07T15:31:57.979Z,4.50
2022-08-07T15:34:50.541Z,4.50
2022-08-07T15:38:17.300Z,4.80
2022-08-07T15:40:33.888Z,4.40
2022-08-07T15:43:53.537Z,4.90
2022-08-07T15:46:38.369Z,5.10
2022-08-07T15:49:15.201Z,4.90
2022-08-07T15:54:34.809Z,5.10
2022-08-07T15:57:39.241Z,5.00
2022-08-07T16:00:06.552Z,5.00
2022-08-07T16:02:47.019Z,4.70
2022-08-07T16:05:20.030Z,4.80
2022-08-07T16:08:32.779Z,5.00
2022-08-07T16:11:02.577Z,5.20
2022-08-07T16:13:59.063Z,5.20
2022-08-07T16:16:43.225Z,4.80
2022-08-07T16:19:59.223Z,5.20
2022-08-07T16:22:55.581Z,5.60
2022-08-07T16:25:25.004Z,6.10
2022-08-07T16:30:08.697Z,6.40
2022-08-07T16:31:58.170Z,6.60
2022-08-07T16:34:48.065Z,7.10
2022-08-07T16:38:04.536Z,7.20
2022-08-07T16:41:04.473Z,6.70
2022-08-07T16:44:06.734Z,6.80
2022-08-07T16:47:23.199Z,6.60
2022-08-07T16:50:37.128Z,7.20
2022-08-07T16:54:01.768Z,6.90
2022-08-07T16:56:18.087Z,6.70
2022-08-07T16:59:11.316Z,6.60
2022-08-07T17:01:43.155Z,6.80
2022-08-07T17:04:58.635Z,7.00
2022-08-07T17:07:54.983Z,7.20
2022-08-07T17:10:54.512Z,6.90
2022-08-07T17:13:41.238Z,6.80
2022-08-07T17:16:29.480Z,6.50
2022-08-07T17:18:58.078Z,7.20
2022-08-07T17:21:51.785Z,6.50
2022-08-07T17:24:41.989Z,6.40
2022-08-07T17:27:19.774Z,6.70
2022-08-07T17:30:14.459Z,6.50
2022-08-07T17:34:08.327Z,5.40
2022-08-07T17:35:56.048Z,6.40
2022-08-07T17:38:50.140Z,6.70
2022-08-07T17:42:02.147Z,6.40
2022-08-07T17:44:41.431Z,6.10
2022-08-07T17:47:38.104Z,6.70
2022-08-07T17:50:30.640Z,6.00
2022-08-07T17:53:09.113Z,6.40
2022-08-07T17:56:15.136Z,6.30
2022-08-07T17:58:57.113Z,6.50
2022-08-07T18:01:50.756Z,6.10
2022-08-07T18:04:54.697Z,5.90
2022-08-07T18:07:43.755Z,6.40
2022-08-07T18:10:32.839Z,5.70
2022-08-07T18:13:20.522Z,5.90
2022-08-07T18:16:01.904Z,6.10
2022-08-07T18:21:07.526Z,5.80
2022-08-07T18:21:59.968Z,5.90
2022-08-07T18:24:40.997Z,7.00
2022-08-07T18:27:38.916Z,5.40
2022-08-07T18:30:45.578Z,6.20
2022-08-07T18:33:15.937Z,5.90
2022-08-07T18:36:18.045Z,6.20
2022-08-07T18:40:07.290Z,6.10
2022-08-07T18:42:17.317Z,6.40
2022-08-07T18:45:44.123Z,6.40
2022-08-07T18:48:00.733Z,6.00
2022-08-07T18:50:48.632Z,5.80
2022-08-07T18:53:39.675Z,5.40
2022-08-07T18:57:23.413Z,6.00
2022-08-07T18:59:59.474Z,6.10
2022-08-07T19:02:42.082Z,6.10
2022-08-07T19:05:22.932Z,6.00
2022-08-07T19:08:31.080Z,5.90
2022-08-07T19:11:36.268Z,5.40
2022-08-07T19:14:17.355Z,6.00
2022-08-07T19:17:06.430Z,5.90
2022-08-07T19:20:03.761Z,5.90
2022-08-07T19:22:44.903Z,6.10
2022-08-07T19:26:22.930Z,6.40
2022-08-07T19:28:58.189Z,6.30
2022-08-07T19:31:39.531Z,6.10
2022-08-07T19:34:03.112Z,6.50
2022-08-07T19:36:40.817Z,5.60
2022-08-07T19:39:15.862Z,6.40
2022-08-07T19:42:24.562Z,5.70
2022-08-07T19:44:57.314Z,6.10
2022-08-07T19:47:36.700Z,6.20
2022-08-07T19:50:41.114Z,6.00
2022-08-07T19:52:59.072Z,7.10
2022-08-07T19:55:46.779Z,8.20
2022-08-07T19:58:28.291Z,8.40
2022-08-07T20:00:58.688Z,8.90
2022-08-07T20:03:35.318Z,9.60
2022-08-07T20:06:15.666Z,9.90
2022-08-07T20:09:03.042Z,9.90
2022-08-07T20:12:23.006Z,10.70
2022-08-07T20:14:32.830Z,9.90
2022-08-07T20:17:07.677Z,10.50
2022-08-07T20:19:47.538Z,10.30
2022-08-07T20:22:29.257Z,9.80
2022-08-07T20:25:12.971Z,9.90
2022-08-07T20:27:58.571Z,9.40
2022-08-07T20:30:46.720Z,10.30
2022-08-07T20:33:36.416Z,9.50
2022-08-07T20:36:09.044Z,9.50
2022-08-07T20:38:53.785Z,9.70
2022-08-07T20:41:38.558Z,8.60
2022-08-07T20:44:13.053Z,8.30
2022-08-07T20:46:45.488Z,8.70
2022-08-07T20:50:01.250Z,8.10
2022-08-07T20:52:14.223Z,8.20
2022-08-07T20:54:55.481Z,8.50
2022-08-07T20:57:30.207Z,9.80
2022-08-07T21:00:09.569Z,8.80
2022-08-07T21:03:04.905Z,7.60
2022-08-07T21:05:52.897Z,7.90
2022-08-07T21:08:36.869Z,7.70
2022-08-07T21:11:22.085Z,8.00
2022-08-07T21:14:29.633Z,8.10
2022-08-07T21:18:01.125Z,7.90
2022-08-07T21:19:51.140Z,8.40
2022-08-07T21:22:33.434Z,8.10
2022-08-07T21:25:14.413Z,7.60
2022-08-07T21:28:47.613Z,7.50
2022-08-07T21:31:31.240Z,7.90
2022-08-07T21:34:21.687Z,8.50
2022-08-07T21:37:21.926Z,8.60
2022-08-07T21:40:03.170Z,8.50
2022-08-07T21:43:10.656Z,8.90
2022-08-07T21:46:14.003Z,8.50
2022-08-07T21:49:14.998Z,8.90
2022-08-07T21:52:11.662Z,8.90
2022-08-07T21:54:54.439Z,8.80
2022-08-07T21:57:52.435Z,8.50
2022-08-07T22:00:25.202Z,8.50
2022-08-07T22:03:05.821Z,9.10
2022-08-07T22:05:50.378Z,8.50
2022-08-07T22:08:26.955Z,8.60
2022-08-07T22:11:03.889Z,8.70
2022-08-07T22:13:51.298Z,8.40
2022-08-07T22:16:55.220Z,8.40
2022-08-07T22:19:29.976Z,8.10
2022-08-07T22:22:28.564Z,8.60
2022-08-07T22:25:12.085Z,9.00
2022-08-07T22:28:29.315Z,8.80
2022-08-07T22:31:05.224Z,9.10
2022-08-07T22:33:57.215Z,8.80
2022-08-07T22:36:38.508Z,9.20
2022-08-07T22:39:52.418Z,8.70
2022-08-07T22:42:30.386Z,7.60
2022-08-07T22:45:10.710Z,8.00
2022-08-07T22:48:55.411Z,7.50
2022-08-07T22:51:49.131Z,7.30
2022-08-07T22:54:32.873Z,7.60
2022-08-07T22:57:28.510Z,7.50
2022-08-07T23:00:28.541Z,7.20
2022-08-07T23:03:11.367Z,7.10
2022-08-07T23:06:28.895Z,7.20
2022-08-07T23:10:01.072Z,7.30
2022-08-07T23:12:34.040Z,8.00
2022-08-07T23:16:06.758Z,8.10
2022-08-07T23:18:42.311Z,7.20
2022-08-07T23:21:36.854Z,7.20
2022-08-07T23:24:21.147Z,7.40
2022-08-07T23:27:06.031Z,6.70
2022-08-07T23:29:43.185Z,7.40
2022-08-07T23:34:20.020Z,7.60
2022-08-07T23:35:37.346Z,7.00
2022-08-07T23:38:42.034Z,7.40
2022-08-07T23:41:47.833Z,7.20
2022-08-07T23:44:49.247Z,7.00
2022-08-07T23:48:04.518Z,7.70
2022-08-07T23:50:37.480Z,7.50
2022-08-07T23:53:17.320Z,7.20
2022-08-07T23:55:58.301Z,7.10
2022-08-07T23:58:38.806Z,7.20
